Terminal Aerodrome Forecast
Issued by NWS

Home | Current Version | Previous Version | Text Only | Print | Product List | Glossary On
Versions: 1 2 3 4 5 6 7 8 9 10 11 12 13 14 15 16 17 18 19 20 21 22 23 24 25 26 27 28 29 30 31 32 33 34 35 36 37 38 39 40 41 42 43 44 45 46
000
FTAK31 PAFA 211901 AAA
TAFAMC
TAF AMD
PAMC 211901Z 2119/2218 00000KT 1SM -SN BR VV012
     FM212100 16001KT 1 1/2SM -SN BR BKN007 OVC015
     FM212300 20007G13KT 1 1/2SM -SN BR OVC007=

USA.gov is the U.S. government's official web portal to all federal, state and local government web resources and services.